Time;durP1;ratioP1;P1;durP2;ratioP2;P2;SDS_P1;SDS_P2;PMS_P1;PMS_P2;Temp;Humidity;BMP_temperature;BMP_pressure;BME280_temperature;BME280_humidity;BME280_pressure;Samples;Min_cycle;Max_cycle;Signal;HPM_P1;HPM_P2
2024/04/11 00:04:32;;;;;;;11.38;6.22;;;;;;;8.14;100.00;101528.88;11197097;26;20014;-25
2024/04/11 00:09:34;;;;;;;12.52;6.30;;;;;;;8.13;100.00;101530.59;11201197;26;20000;-25
2024/04/11 00:14:35;;;;;;;10.52;6.13;;;;;;;8.12;100.00;101523.59;11200782;26;20014;-25
2024/04/11 00:19:36;;;;;;;10.55;6.45;;;;;;;8.07;100.00;101530.22;11199749;26;20003;-25
2024/04/11 00:24:41;;;;;;;12.05;6.20;;;;;;;8.06;100.00;101535.34;11200312;26;19992;-24
2024/04/11 00:29:42;;;;;;;9.90;5.88;;;;;;;8.04;100.00;101529.13;11200603;26;19995;-24
2024/04/11 00:34:43;;;;;;;11.18;6.20;;;;;;;8.05;100.00;101523.09;11197490;26;20081;-24
2024/04/11 00:39:44;;;;;;;11.65;6.13;;;;;;;8.00;100.00;101527.16;11200576;26;20480;-24
2024/04/11 00:44:48;;;;;;;10.85;5.80;;;;;;;8.00;100.00;101525.44;11198655;26;20047;-25
2024/04/11 00:49:50;;;;;;;12.07;5.57;;;;;;;8.02;100.00;101538.53;11168920;26;20047;-24
2024/04/11 00:54:51;;;;;;;13.90;5.55;;;;;;;7.96;100.00;101538.16;11197272;26;20440;-24
2024/04/11 00:59:53;;;;;;;13.48;5.10;;;;;;;7.98;100.00;101537.47;11139131;26;19996;-24
2024/04/11 01:04:54;;;;;;;9.23;5.10;;;;;;;7.95;100.00;101538.97;11168046;26;19996;-24
2024/04/11 01:09:55;;;;;;;10.13;5.28;;;;;;;7.94;100.00;101539.81;11168280;26;19995;-24
2024/04/11 01:14:56;;;;;;;9.35;5.13;;;;;;;7.92;100.00;101539.69;11197907;26;20440;-25
2024/04/11 01:19:59;;;;;;;12.60;5.10;;;;;;;7.85;100.00;101555.75;11167875;26;19999;-25
2024/04/11 01:25:00;;;;;;;11.18;5.00;;;;;;;7.85;100.00;101546.22;11198047;26;20000;-24
2024/04/11 01:30:06;;;;;;;13.32;4.80;;;;;;;7.89;100.00;101542.09;11198378;26;20455;-24
2024/04/11 01:35:08;;;;;;;13.57;4.55;;;;;;;7.77;100.00;101530.94;11195059;26;20031;-24
2024/04/11 01:40:10;;;;;;;9.13;4.43;;;;;;;7.85;100.00;101547.94;11198058;26;20035;-24
2024/04/11 01:45:12;;;;;;;8.88;4.07;;;;;;;7.85;100.00;101534.91;11196117;26;20014;-24
2024/04/11 01:50:13;;;;;;;7.75;4.00;;;;;;;7.90;100.00;101528.31;11197574;26;20049;-24
2024/04/11 01:55:17;;;;;;;8.05;3.63;;;;;;;7.89;100.00;101535.19;11199657;26;20526;-24
2024/04/11 02:00:18;;;;;;;11.88;3.80;;;;;;;7.94;100.00;101538.09;11201882;26;20003;-24
2024/04/11 02:05:20;;;;;;;9.80;3.65;;;;;;;7.97;100.00;101542.59;11204051;26;20015;-24
2024/04/11 02:10:21;;;;;;;9.23;3.58;;;;;;;7.90;100.00;101539.63;11203757;26;20440;-24
2024/04/11 02:15:25;;;;;;;7.57;3.30;;;;;;;7.89;100.00;101552.50;11202092;26;20000;-24
2024/04/11 02:20:27;;;;;;;7.85;3.40;;;;;;;7.95;100.00;101544.19;11204327;26;20004;-24
2024/04/11 02:25:28;;;;;;;7.80;3.40;;;;;;;7.98;100.00;101550.47;11162045;26;20004;-24
2024/04/11 02:30:30;;;;;;;9.13;3.42;;;;;;;7.97;100.00;101559.09;11203584;26;20015;-24
2024/04/11 02:35:32;;;;;;;6.70;3.30;;;;;;;7.96;100.00;101552.09;11169008;26;20385;-24
2024/04/11 02:40:33;;;;;;;7.82;3.28;;;;;;;7.96;100.00;101549.50;11202865;26;20006;-24
2024/04/11 02:45:37;;;;;;;7.10;3.10;;;;;;;7.87;100.00;101543.72;11203626;26;20440;-24
2024/04/11 02:50:38;;;;;;;11.32;3.53;;;;;;;7.88;100.00;101550.72;11200746;26;20007;-24
2024/04/11 02:55:40;;;;;;;7.35;3.20;;;;;;;7.84;100.00;101540.94;11203509;26;20341;-24
2024/04/11 03:00:41;;;;;;;10.93;3.65;;;;;;;7.82;100.00;101538.22;11171292;26;20480;-23
2024/04/11 03:05:42;;;;;;;7.75;3.03;;;;;;;7.79;100.00;101527.63;11199604;26;20016;-24
2024/04/11 03:10:43;;;;;;;7.53;2.95;;;;;;;7.80;100.00;101526.84;11202051;26;20010;-24
2024/04/11 03:15:45;;;;;;;7.05;3.17;;;;;;;7.81;100.00;101527.75;11202314;26;19996;-24
2024/04/11 03:20:55;;;;;;;6.13;2.80;;;;;;;7.79;100.00;101539.75;11201912;26;20012;-24
2024/04/11 03:25:56;;;;;;;7.75;2.70;;;;;;;7.78;100.00;101533.66;11202297;26;20011;-24
2024/04/11 03:31:05;;;;;;;8.52;3.00;;;;;;;7.74;100.00;101535.94;11201816;26;20464;-25
2024/04/11 03:36:12;;;;;;;9.38;2.90;;;;;;;7.84;100.00;101533.13;11199079;26;20077;-24
2024/04/11 03:41:14;;;;;;;5.15;2.50;;;;;;;7.88;100.00;101523.00;11171913;26;20016;-24
2024/04/11 03:46:23;;;;;;;7.18;2.50;;;;;;;7.88;100.00;101520.38;11201893;26;20003;-24
2024/04/11 03:51:39;;;;;;;5.07;2.50;;;;;;;7.90;100.00;101530.91;11201224;26;20348;-24
2024/04/11 03:56:40;;;;;;;9.25;2.80;;;;;;;7.95;100.00;101526.84;11198663;26;20023;-24
2024/04/11 04:01:41;;;;;;;6.05;2.80;;;;;;;7.95;100.00;101525.97;11200759;26;19996;-24
2024/04/11 04:06:43;;;;;;;5.97;2.40;;;;;;;7.90;100.00;101524.00;11201136;26;20333;-24
2024/04/11 04:11:45;;;;;;;8.35;2.50;;;;;;;7.95;100.00;101529.47;11195951;26;20014;-24
2024/04/11 04:16:46;;;;;;;7.18;2.47;;;;;;;7.95;100.00;101519.06;11200284;26;20000;-24
2024/04/11 04:21:47;;;;;;;8.05;2.35;;;;;;;8.00;100.00;101519.34;11199441;26;20019;-24
2024/04/11 04:26:48;;;;;;;6.90;2.28;;;;;;;7.93;100.00;101505.06;11195139;26;20461;-24
2024/04/11 04:31:50;;;;;;;7.22;2.30;;;;;;;7.97;100.00;101508.75;11200187;26;19999;-24
2024/04/11 04:36:51;;;;;;;7.50;2.47;;;;;;;7.99;100.00;101499.31;11200415;26;20530;-24
2024/04/11 04:41:52;;;;;;;4.95;2.30;;;;;;;8.06;100.00;101502.38;11196895;26;20015;-24
2024/04/11 04:46:54;;;;;;;5.70;2.20;;;;;;;8.06;100.00;101494.56;11199976;26;20037;-24
2024/04/11 04:51:55;;;;;;;5.40;2.28;;;;;;;8.05;100.00;101487.56;11199023;26;19999;-24
2024/04/11 04:56:56;;;;;;;4.80;2.13;;;;;;;8.09;100.00;101486.94;11198664;26;20407;-24
2024/04/11 05:01:57;;;;;;;6.63;2.40;;;;;;;8.13;100.00;101494.13;11196591;26;20000;-24
2024/04/11 05:06:58;;;;;;;6.63;1.98;;;;;;;8.16;100.00;101492.53;11199008;26;20018;-25
2024/04/11 05:12:00;;;;;;;6.13;2.15;;;;;;;8.21;100.00;101491.06;11198550;26;20102;-24
2024/04/11 05:17:01;;;;;;;5.85;2.25;;;;;;;8.27;100.00;101486.22;11199173;26;20468;-24
2024/04/11 05:22:04;;;;;;;6.18;2.13;;;;;;;8.30;100.00;101483.81;11198592;26;20010;-24
2024/04/11 05:27:05;;;;;;;10.60;2.20;;;;;;;8.35;100.00;101491.09;11197596;26;19999;-23
2024/04/11 05:32:08;;;;;;;5.20;2.10;;;;;;;8.41;100.00;101497.50;11197738;26;20023;-24
2024/04/11 05:37:10;;;;;;;8.52;2.55;;;;;;;8.47;100.00;101492.63;11197852;26;20004;-24
2024/04/11 05:42:11;;;;;;;6.15;2.03;;;;;;;8.49;100.00;101493.63;11190815;26;20360;-24
2024/04/11 05:47:12;;;;;;;7.38;2.10;;;;;;;8.57;100.00;101502.81;11198116;26;19999;-24
2024/04/11 05:52:13;;;;;;;5.82;2.20;;;;;;;8.67;100.00;101504.22;11165031;26;20015;-24
2024/04/11 05:57:14;;;;;;;4.78;1.90;;;;;;;8.78;100.00;101514.44;11193149;26;20003;-24
2024/04/11 06:02:16;;;;;;;6.05;2.03;;;;;;;8.87;100.00;101508.84;11196614;26;20007;-24
2024/04/11 06:07:17;;;;;;;7.07;2.00;;;;;;;8.93;100.00;101518.75;11198012;26;20012;-24
2024/04/11 06:12:19;;;;;;;7.43;2.17;;;;;;;8.97;100.00;101499.84;11196686;26;20003;-24
2024/04/11 06:17:22;;;;;;;7.32;1.98;;;;;;;9.06;100.00;101505.56;11165930;26;20015;-24
2024/04/11 06:22:23;;;;;;;8.07;1.85;;;;;;;9.11;100.00;101522.41;11195347;26;19995;-24
2024/04/11 06:27:26;;;;;;;8.70;2.00;;;;;;;9.20;100.00;101530.72;11196207;26;19995;-24
2024/04/11 06:32:31;;;;;;;6.15;2.10;;;;;;;9.29;100.00;101540.75;11187054;26;20003;-24
2024/04/11 06:37:32;;;;;;;8.43;2.05;;;;;;;9.37;100.00;101534.25;11168430;26;20431;-24
2024/04/11 06:42:40;;;;;;;6.72;2.05;;;;;;;9.48;100.00;101545.28;11197933;26;19999;-24
2024/04/11 06:47:43;;;;;;;;;;;;;;;9.55;100.00;101539.63;11196775;26;20055;-24
2024/04/11 06:52:45;;;;;;;6.93;2.08;;;;;;;9.61;100.00;101545.16;11202652;26;19925;-24
2024/04/11 06:57:47;;;;;;;7.25;1.85;;;;;;;9.67;100.00;101555.94;11200455;26;19999;-24
2024/04/11 07:02:49;;;;;;;9.13;1.85;;;;;;;9.73;100.00;101555.34;11199901;26;20096;-24
2024/04/11 07:07:54;;;;;;;6.50;1.83;;;;;;;9.77;100.00;101557.34;11203033;26;20438;-24
2024/04/11 07:12:59;;;;;;;4.93;1.83;;;;;;;9.81;100.00;101551.47;11196303;26;20023;-24
2024/04/11 07:18:01;;;;;;;7.45;2.15;;;;;;;9.88;100.00;101564.00;11202147;26;20009;-24
2024/04/11 07:23:04;;;;;;;10.68;2.33;;;;;;;9.94;100.00;101563.44;11168010;26;19996;-24
2024/04/11 07:28:07;;;;;;;8.02;1.92;;;;;;;9.98;100.00;101561.06;11202501;26;20011;-24
2024/04/11 07:33:11;;;;;;;7.55;1.90;;;;;;;10.03;100.00;101565.66;11201011;26;20007;-24
2024/04/11 07:38:13;;;;;;;5.97;1.70;;;;;;;10.08;100.00;101570.28;11197443;26;20052;-24
2024/04/11 07:43:15;;;;;;;5.20;1.73;;;;;;;10.12;100.00;101574.88;11194462;26;20015;-24
2024/04/11 07:48:16;;;;;;;9.13;2.00;;;;;;;10.15;100.00;101576.75;11158003;26;20010;-24
2024/04/11 07:53:18;;;;;;;7.22;1.80;;;;;;;10.17;100.00;101586.44;11198614;26;20329;-24
2024/04/11 07:58:20;;;;;;;7.57;1.73;;;;;;;10.21;100.00;101600.56;11200228;26;20076;-24
2024/04/11 08:03:21;;;;;;;10.07;1.95;;;;;;;10.25;100.00;101596.44;11199525;26;19996;-24
2024/04/11 08:08:22;;;;;;;7.05;1.90;;;;;;;10.23;100.00;101610.28;11193682;26;20441;-24
2024/04/11 08:13:24;;;;;;;6.30;1.95;;;;;;;10.24;100.00;101621.63;11196875;26;19995;-24
2024/04/11 08:18:28;;;;;;;9.57;2.35;;;;;;;10.22;100.00;101620.69;11195778;26;19992;-24
2024/04/11 08:23:29;;;;;;;6.63;2.00;;;;;;;10.26;100.00;101613.91;11198553;26;20010;-24
2024/04/11 08:28:37;;;;;;;4.45;1.77;;;;;;;10.35;100.00;101611.81;11198468;26;19999;-24
2024/04/11 08:33:42;;;;;;;5.53;1.90;;;;;;;10.48;100.00;101602.88;11197816;26;20528;-24
2024/04/11 08:38:43;;;;;;;5.22;1.92;;;;;;;10.67;100.00;101616.97;11186628;26;20448;-24
2024/04/11 08:43:45;;;;;;;5.43;1.92;;;;;;;10.91;100.00;101622.56;11193618;26;20006;-24
2024/04/11 08:48:46;;;;;;;7.47;2.05;;;;;;;11.02;100.00;101620.47;11193620;26;20266;-23
2024/04/11 08:53:48;;;;;;;9.73;2.05;;;;;;;11.01;100.00;101626.53;11188204;26;20018;-24
2024/04/11 08:58:50;;;;;;;6.20;2.08;;;;;;;11.02;100.00;101625.72;11196902;26;20003;-24
2024/04/11 09:03:52;;;;;;;6.68;2.00;;;;;;;11.10;100.00;101626.06;11161402;26;20014;-23
2024/04/11 09:08:54;;;;;;;8.00;1.90;;;;;;;11.24;100.00;101629.41;11195614;26;19999;-24
2024/04/11 09:13:58;;;;;;;11.70;2.05;;;;;;;11.36;100.00;101630.00;11189337;26;20508;-24
2024/04/11 09:19:02;;;;;;;9.95;2.00;;;;;;;11.57;100.00;101630.13;11191337;26;20000;-25
2024/04/11 09:24:10;;;;;;;9.20;1.92;;;;;;;11.71;100.00;101633.41;11195813;26;20055;-24
2024/04/11 09:29:11;;;;;;;6.80;1.90;;;;;;;11.71;100.00;101647.41;11195492;26;20018;-24
2024/04/11 09:34:12;;;;;;;7.60;2.10;;;;;;;11.79;100.00;101646.03;11196833;26;20336;-24
2024/04/11 09:39:41;;;;;;;5.63;1.73;;;;;;;11.77;100.00;101652.03;11197829;26;20012;-24
2024/04/11 09:44:46;;;;;;;9.93;2.10;;;;;;;11.70;100.00;101648.22;11166686;26;19995;-24
2024/04/11 09:49:55;;;;;;;7.10;1.90;;;;;;;11.65;100.00;101649.72;11163364;26;20007;-24
2024/04/11 09:55:02;;;;;;;7.38;2.10;;;;;;;11.66;100.00;101659.38;11182827;26;20445;-24
2024/04/11 10:00:18;;;;;;;8.13;2.03;;;;;;;11.68;100.00;101660.34;11138379;26;20004;-24
2024/04/11 10:05:23;;;;;;;9.82;4.45;;;;;;;11.75;100.00;101667.66;11165326;26;20011;-24
2024/04/11 10:10:27;;;;;;;9.52;2.22;;;;;;;11.90;100.00;101669.28;11193137;26;20004;-23
2024/04/11 10:15:33;;;;;;;9.32;2.05;;;;;;;12.10;100.00;101667.56;11196462;26;19992;-24
2024/04/11 10:21:02;;;;;;;6.65;1.80;;;;;;;12.20;100.00;101672.41;11200612;26;19999;-24
2024/04/11 10:26:14;;;;;;;7.00;2.42;;;;;;;12.28;100.00;101665.81;11193691;26;20041;-24
2024/04/11 10:31:22;;;;;;;6.70;2.22;;;;;;;12.34;100.00;101670.41;11169426;26;20364;-24
2024/04/11 10:36:25;;;;;;;6.05;2.35;;;;;;;12.53;100.00;101673.06;11194315;26;20040;-25
2024/04/11 10:41:28;;;;;;;6.93;2.33;;;;;;;12.78;100.00;101682.88;11198098;26;20000;-25
2024/04/11 10:46:30;;;;;;;9.23;2.20;;;;;;;12.77;100.00;101676.75;11198765;26;19999;-25
2024/04/11 10:51:32;;;;;;;6.25;2.15;;;;;;;12.67;100.00;101692.91;11199709;26;20007;-24
2024/04/11 10:56:33;;;;;;;8.05;2.50;;;;;;;12.71;100.00;101700.06;11199790;26;20337;-25
2024/04/11 11:01:34;;;;;;;6.47;1.90;;;;;;;12.57;100.00;101695.97;11167752;26;19995;-25
2024/04/11 11:06:44;;;;;;;6.57;2.10;;;;;;;12.57;100.00;101693.34;11174660;26;20498;-24
2024/04/11 11:11:46;;;;;;;7.97;2.30;;;;;;;12.69;100.00;101690.38;11190084;26;20007;-25
2024/04/11 11:16:47;;;;;;;4.78;2.15;;;;;;;12.84;100.00;101706.75;11169859;26;19995;-25
2024/04/11 11:21:56;;;;;;;7.88;2.40;;;;;;;12.78;100.00;101711.72;11200903;26;20435;-25
2024/04/11 11:27:01;;;;;;;10.98;2.30;;;;;;;12.94;100.00;101708.97;11187411;26;19996;-25
2024/04/11 11:32:04;;;;;;;7.97;2.58;;;;;;;13.15;100.00;101727.38;11155340;26;20018;-24
2024/04/11 11:37:12;;;;;;;8.43;2.10;;;;;;;13.17;100.00;101715.22;11197574;26;20166;-24
2024/04/11 11:42:32;;;;;;;7.25;2.13;;;;;;;13.14;100.00;101714.19;11196564;26;19996;-24
2024/04/11 11:47:38;;;;;;;8.02;2.35;;;;;;;13.21;100.00;101696.13;11201614;26;20072;-25
2024/04/11 11:52:40;;;;;;;10.05;2.50;;;;;;;13.22;100.00;101700.56;11201010;26;20456;-24
2024/04/11 11:57:41;;;;;;;8.50;2.53;;;;;;;13.28;100.00;101712.19;11183307;26;20026;-24
2024/04/11 12:02:42;;;;;;;10.77;2.80;;;;;;;13.28;100.00;101709.53;11201001;26;20348;-25
2024/04/11 12:07:46;;;;;;;7.22;2.92;;;;;;;13.20;100.00;101698.69;11201042;26;20006;-25
2024/04/11 12:12:48;;;;;;;9.98;2.60;;;;;;;13.26;100.00;101704.25;11200800;26;20007;-24
2024/04/11 12:17:50;;;;;;;8.48;2.40;;;;;;;13.12;100.00;101719.34;11201224;26;21069;-25
2024/04/11 12:22:53;;;;;;;7.63;2.88;;;;;;;13.16;100.00;101710.81;11198088;26;20050;-24
2024/04/11 12:27:54;;;;;;;6.20;2.50;;;;;;;13.39;100.00;101708.28;11169744;26;20069;-24
2024/04/11 12:32:56;;;;;;;9.88;2.55;;;;;;;13.36;100.00;101713.41;11200085;26;19999;-24
2024/04/11 12:37:57;;;;;;;9.27;2.80;;;;;;;13.61;100.00;101715.31;11197406;26;19999;-25
2024/04/11 12:42:59;;;;;;;6.88;2.60;;;;;;;13.71;100.00;101712.22;11199145;26;20047;-24
2024/04/11 12:48:05;;;;;;;5.53;2.45;;;;;;;13.79;100.00;101705.53;11200042;26;19995;-26
2024/04/11 12:53:10;;;;;;;6.53;2.67;;;;;;;13.93;100.00;101719.25;11194025;26;20065;-25
2024/04/11 12:58:14;;;;;;;10.02;3.08;;;;;;;13.98;100.00;101712.41;11199080;26;20003;-24
2024/04/11 13:03:15;;;;;;;10.77;3.03;;;;;;;14.14;100.00;101720.09;11198286;26;20437;-24
2024/04/11 13:08:17;;;;;;;10.63;3.33;;;;;;;14.24;100.00;101717.78;11199202;26;20361;-25
2024/04/11 13:13:19;;;;;;;8.13;3.10;;;;;;;14.05;100.00;101717.09;11197815;26;20341;-26
2024/04/11 13:18:28;;;;;;;8.27;3.10;;;;;;;13.94;100.00;101721.03;11165986;26;20007;-25
2024/04/11 13:23:32;;;;;;;7.88;3.10;;;;;;;13.92;100.00;101707.84;11198138;26;20004;-25
2024/04/11 13:28:41;;;;;;;11.40;3.15;;;;;;;14.00;100.00;101712.50;11193483;26;20379;-24
2024/04/11 13:33:43;;;;;;;8.07;3.10;;;;;;;13.97;100.00;101708.00;11157466;26;19999;-24
2024/04/11 13:38:49;;;;;;;8.00;3.50;;;;;;;13.82;100.00;101713.53;11193957;26;20011;-25
2024/04/11 13:43:52;;;;;;;8.57;3.40;;;;;;;13.85;100.00;101712.78;11192863;26;20018;-25
2024/04/11 13:48:53;;;;;;;9.38;3.50;;;;;;;13.88;100.00;101711.16;11195273;26;20003;-25
2024/04/11 13:54:02;;;;;;;9.25;3.70;;;;;;;13.99;100.00;101721.22;11202450;26;19995;-24
2024/04/11 13:59:07;;;;;;;8.85;3.78;;;;;;;13.84;100.00;101722.38;11203148;26;20004;-25
2024/04/11 14:04:15;;;;;;;7.75;3.50;;;;;;;13.85;100.00;101713.66;11172247;26;20007;-25
2024/04/11 14:09:20;;;;;;;8.82;3.40;;;;;;;13.88;100.00;101707.63;11202924;26;20090;-26
2024/04/11 14:14:21;;;;;;;7.03;3.25;;;;;;;13.92;100.00;101704.28;11202648;26;20004;-25
2024/04/11 14:19:51;;;;;;;10.85;3.90;;;;;;;13.98;100.00;101712.41;11165703;26;20010;-26
2024/04/11 14:30:05;;;;;;;7.60;4.70;;;;;;;14.02;100.00;101710.81;11199918;26;20012;-26
2024/04/11 14:40:08;;;;;;;20.17;10.35;;;;;;;13.99;100.00;101714.22;11200326;26;20385;-25
2024/04/11 14:45:09;;;;;;;8.13;4.70;;;;;;;14.00;100.00;101717.75;11198701;26;20023;-25
2024/04/11 14:50:18;;;;;;;8.65;5.20;;;;;;;13.98;100.00;101715.03;11183990;26;20004;-25
2024/04/11 14:55:23;;;;;;;12.02;5.75;;;;;;;13.86;100.00;101710.22;11191623;26;20437;-25
2024/04/11 15:00:43;;;;;;;13.10;6.07;;;;;;;13.86;100.00;101704.03;11196182;26;20049;-26
2024/04/11 15:05:50;;;;;;;7.80;5.47;;;;;;;13.97;100.00;101697.50;11166441;26;20014;-25
2024/04/11 15:10:51;;;;;;;11.98;6.18;;;;;;;13.89;100.00;101697.22;11201221;26;20539;-25
2024/04/11 15:16:20;;;;;;;10.57;6.25;;;;;;;13.92;100.00;101694.69;11200850;26;20014;-25
2024/04/11 15:21:35;;;;;;;12.25;6.22;;;;;;;13.91;100.00;101702.50;11199068;26;19999;-25
2024/04/11 15:26:36;;;;;;;10.70;6.10;;;;;;;13.86;100.00;101702.34;11172708;26;20557;-26
2024/04/11 15:31:41;;;;;;;10.25;6.13;;;;;;;13.88;100.00;101698.03;11191725;26;20023;-25
2024/04/11 15:37:20;;;;;;;11.57;5.72;;;;;;;13.92;100.00;101701.66;11197444;26;20093;-25
2024/04/11 15:42:21;;;;;;;9.40;6.50;;;;;;;13.86;100.00;101685.66;11198904;26;20007;-25
2024/04/11 15:47:22;;;;;;;11.47;6.00;;;;;;;13.80;100.00;101675.81;11188747;26;20010;-25
2024/04/11 15:52:28;;;;;;;10.88;5.97;;;;;;;13.88;100.00;101677.00;11199910;26;20003;-25
2024/04/11 15:57:30;;;;;;;10.40;6.53;;;;;;;14.02;100.00;101679.25;11199978;26;20011;-25
2024/04/11 16:02:32;;;;;;;9.45;6.10;;;;;;;14.17;100.00;101675.47;11198532;26;20053;-25
2024/04/11 16:07:35;;;;;;;7.25;5.22;;;;;;;14.37;100.00;101675.38;11199595;26;20007;-25
2024/04/11 16:12:37;;;;;;;10.20;5.10;;;;;;;14.33;100.00;101682.22;11198337;26;20349;-25
2024/04/11 16:17:39;;;;;;;11.10;5.30;;;;;;;14.09;100.00;101690.09;11193399;26;20058;-26
2024/04/11 16:22:44;;;;;;;9.30;5.20;;;;;;;14.04;100.00;101689.00;11194647;26;19995;-25
2024/04/11 16:27:46;;;;;;;9.65;5.13;;;;;;;13.91;100.00;101687.63;11199130;26;20011;-25
2024/04/11 16:32:48;;;;;;;9.70;5.13;;;;;;;13.92;100.00;101691.16;11193365;26;20010;-25
2024/04/11 16:37:55;;;;;;;7.40;5.63;;;;;;;13.88;100.00;101694.50;11199107;26;20015;-25
2024/04/11 16:43:00;;;;;;;9.02;5.40;;;;;;;13.87;100.00;101697.97;11193605;26;20010;-25
2024/04/11 16:48:02;;;;;;;11.32;6.22;;;;;;;13.84;100.00;101704.00;11196650;26;20010;-26
2024/04/11 16:53:09;;;;;;;10.43;5.70;;;;;;;13.77;100.00;101708.97;11197510;26;20082;-26
2024/04/11 16:58:20;;;;;;;10.67;6.00;;;;;;;13.70;100.00;101710.41;11198252;26;20570;-25
2024/04/11 17:03:26;;;;;;;10.80;6.13;;;;;;;13.64;100.00;101715.44;11197364;26;20020;-25
2024/04/11 17:08:28;;;;;;;9.63;5.95;;;;;;;13.58;100.00;101718.72;11192069;26;20340;-26
2024/04/11 17:13:32;;;;;;;11.35;5.78;;;;;;;13.55;100.00;101728.22;11197120;26;20006;-25
2024/04/11 17:18:51;;;;;;;10.90;5.65;;;;;;;13.50;100.00;101734.97;11197162;26;20007;-25
2024/04/11 17:23:58;;;;;;;10.07;5.85;;;;;;;13.45;100.00;101743.56;11163872;26;20338;-25
2024/04/11 17:29:03;;;;;;;11.00;6.22;;;;;;;13.42;100.00;101740.81;11195862;26;19995;-26
2024/04/11 17:34:07;;;;;;;10.85;6.43;;;;;;;13.36;100.00;101748.44;11196000;26;20014;-26
2024/04/11 17:44:14;;;;;;;11.13;6.85;;;;;;;13.28;100.00;101734.06;11196198;26;20018;-25
2024/04/11 17:49:27;;;;;;;11.82;6.95;;;;;;;13.28;100.00;101717.44;11196397;26;19999;-25
2024/04/11 17:54:34;;;;;;;10.93;6.95;;;;;;;13.29;100.00;101713.97;11195075;26;20075;-26
2024/04/11 17:59:37;;;;;;;9.82;6.70;;;;;;;13.26;100.00;101709.50;11195483;26;20014;-26
2024/04/11 18:04:38;;;;;;;9.82;6.38;;;;;;;13.24;100.00;101717.28;11195553;26;20557;-26
2024/04/11 18:09:41;;;;;;;13.10;6.50;;;;;;;13.20;100.00;101723.22;11164185;26;20329;-26
2024/04/11 18:14:43;;;;;;;10.52;5.90;;;;;;;13.19;100.00;101728.38;11190464;26;20424;-26
2024/04/11 18:19:47;;;;;;;11.00;5.75;;;;;;;13.18;100.00;101731.84;11195244;26;20000;-25
2024/04/11 18:24:53;;;;;;;9.63;5.57;;;;;;;13.16;100.00;101738.75;11194809;26;20007;-26
2024/04/11 18:29:57;;;;;;;10.70;5.53;;;;;;;13.13;100.00;101738.63;11192232;26;19999;-25
2024/04/11 18:35:00;;;;;;;12.30;5.60;;;;;;;13.12;100.00;101739.47;11194643;26;20334;-25
2024/04/11 18:40:17;;;;;;;14.10;6.32;;;;;;;13.09;100.00;101748.09;11199801;26;20073;-26
2024/04/11 18:45:33;;;;;;;10.23;6.38;;;;;;;13.08;100.00;101767.31;11199518;26;19996;-25
2024/04/11 18:50:35;;;;;;;11.15;5.80;;;;;;;13.05;100.00;101769.81;11194916;26;20010;-25
2024/04/11 18:55:49;;;;;;;11.23;5.93;;;;;;;13.04;100.00;101770.63;11201976;26;20004;-25
2024/04/11 19:00:56;;;;;;;11.82;6.07;;;;;;;13.04;100.00;101769.75;11198896;26;20364;-25
2024/04/11 19:05:59;;;;;;;9.30;6.30;;;;;;;13.01;100.00;101773.13;11201480;26;19995;-25
2024/04/11 19:11:13;;;;;;;8.43;6.03;;;;;;;12.98;100.00;101773.88;11200008;26;20007;-26
2024/04/11 19:16:18;;;;;;;8.15;5.50;;;;;;;12.99;100.00;101785.28;11180876;26;20049;-25
2024/04/11 19:21:22;;;;;;;11.15;5.75;;;;;;;12.97;100.00;101785.22;11191620;26;20387;-25
2024/04/11 19:26:26;;;;;;;11.48;6.30;;;;;;;12.97;100.00;101779.03;11187824;26;20472;-26
2024/04/11 19:31:28;;;;;;;9.23;6.25;;;;;;;12.96;100.00;101779.88;11201697;26;20008;-25
2024/04/11 19:36:33;;;;;;;9.18;5.47;;;;;;;12.94;100.00;101785.09;11197647;26;19998;-26
2024/04/11 19:41:35;;;;;;;10.90;6.13;;;;;;;12.95;100.00;101776.38;11196745;26;19996;-25
2024/04/11 19:46:39;;;;;;;10.38;6.30;;;;;;;12.95;100.00;101773.75;11197052;26;20307;-26
2024/04/11 19:51:40;;;;;;;12.60;6.00;;;;;;;12.93;100.00;101771.88;11159787;26;20000;-25
2024/04/11 19:56:45;;;;;;;15.27;6.40;;;;;;;12.93;100.00;101785.00;11198290;26;19995;-25
2024/04/11 20:01:53;;;;;;;11.15;6.32;;;;;;;12.91;100.00;101789.31;11197134;26;19995;-26
2024/04/11 20:07:01;;;;;;;;;;;;;;;12.90;100.00;101793.63;11199025;26;20383;-26
2024/04/11 20:12:12;;;;;;;16.75;8.43;;;;;;;12.87;100.00;101789.97;11197821;26;19932;-26
2024/04/11 20:17:17;;;;;;;12.77;7.50;;;;;;;12.85;100.00;101786.41;11198317;26;20044;-25
2024/04/11 20:22:21;;;;;;;16.23;7.90;;;;;;;12.83;100.00;101790.66;11198141;26;19999;-25
2024/04/11 20:27:29;;;;;;;15.50;8.40;;;;;;;12.81;100.00;101793.22;11191707;26;20012;-25
2024/04/11 20:32:30;;;;;;;;;;;;;;;12.79;100.00;101797.50;11195436;26;20007;-24
2024/04/11 20:37:33;;;;;;;13.50;8.40;;;;;;;12.77;100.00;101801.78;11168756;26;19994;-24
2024/04/11 20:47:48;;;;;;;16.67;9.80;;;;;;;12.78;100.00;101783.50;11200122;26;19999;-24
2024/04/11 21:35:33;;;;;;;13.55;8.15;;;;;;;12.77;100.00;101781.69;11195333;26;20012;-24
2024/04/11 21:40:34;;;;;;;12.18;7.85;;;;;;;12.76;100.00;101772.03;11159759;26;20069;-24
2024/04/11 21:45:38;;;;;;;11.75;7.55;;;;;;;12.77;100.00;101773.81;11198192;26;19999;-24
2024/04/11 21:50:42;;;;;;;15.02;7.93;;;;;;;12.77;100.00;101771.19;11187999;26;20003;-24
2024/04/11 21:55:45;;;;;;;15.25;7.75;;;;;;;12.75;100.00;101777.22;11198754;26;19999;-24
2024/04/11 22:01:01;;;;;;;14.07;7.75;;;;;;;12.74;100.00;101767.53;11197308;26;20003;-24
2024/04/11 22:06:03;;;;;;;15.85;8.65;;;;;;;12.74;100.00;101773.66;11197446;26;20437;-25
2024/04/11 22:11:05;;;;;;;17.67;9.90;;;;;;;12.74;100.00;101763.19;11196530;26;20415;-24
2024/04/11 22:16:09;;;;;;;18.67;10.32;;;;;;;12.79;100.00;101763.41;11203527;26;20007;-25
2024/04/11 22:21:13;;;;;;;15.32;9.82;;;;;;;12.78;100.00;101751.09;11199139;26;20011;-24
2024/04/11 22:26:17;;;;;;;15.90;9.38;;;;;;;12.78;100.00;101751.09;11203762;26;20441;-24
2024/04/11 22:31:19;;;;;;;14.10;9.25;;;;;;;12.76;100.00;101747.53;11200734;26;20003;-24
2024/04/11 22:41:30;;;;;;;17.15;9.48;;;;;;;12.65;100.00;101752.25;11202309;26;20075;-24
2024/04/11 22:46:33;;;;;;;19.77;9.68;;;;;;;12.60;100.00;101753.78;11169372;26;20047;-24
2024/04/11 22:51:40;;;;;;;18.77;9.43;;;;;;;12.59;100.00;101769.44;11202751;26;20025;-25
2024/04/11 22:56:42;;;;;;;19.42;10.00;;;;;;;12.55;100.00;101773.66;11203528;26;20018;-24
2024/04/11 23:02:03;;;;;;;17.85;10.30;;;;;;;12.51;100.00;101779.59;11199125;26;20004;-24
2024/04/11 23:07:04;;;;;;;17.52;9.90;;;;;;;12.47;100.00;101780.28;11198050;26;20080;-24
2024/04/11 23:12:08;;;;;;;18.48;9.88;;;;;;;12.45;100.00;101779.31;11171098;26;20015;-24
2024/04/11 23:17:23;;;;;;;20.90;9.55;;;;;;;12.44;100.00;101781.03;11201968;26;20027;-24
2024/04/11 23:22:32;;;;;;;16.98;9.02;;;;;;;12.41;100.00;101778.28;11201286;26;20098;-24
2024/04/11 23:27:38;;;;;;;14.73;8.75;;;;;;;12.39;100.00;101789.50;11201789;26;20004;-25
2024/04/11 23:32:39;;;;;;;15.48;9.02;;;;;;;12.39;100.00;101790.41;11199867;26;20024;-24
2024/04/11 23:37:41;;;;;;;15.57;8.70;;;;;;;12.39;100.00;101789.50;11202368;26;20101;-24
2024/04/11 23:42:42;;;;;;;16.30;9.30;;;;;;;12.40;100.00;101794.84;11201365;26;20022;-24
2024/04/11 23:47:52;;;;;;;16.98;9.85;;;;;;;12.40;100.00;101796.53;11201926;26;20007;-24
2024/04/11 23:52:56;;;;;;;18.00;10.38;;;;;;;12.40;100.00;101778.19;11199495;26;20495;-24
2024/04/11 23:58:15;;;;;;;16.83;9.65;;;;;;;12.41;100.00;101786.13;11201392;26;20336;-24
